Time;durP1;ratioP1;P1;durP2;ratioP2;P2;SDS_P1;SDS_P2;PMS_P1;PMS_P2;Temp;Humidity;BMP_temperature;BMP_pressure;BME280_temperature;BME280_humidity;BME280_pressure;Samples;Min_cycle;Max_cycle;Signal;HPM_P1;HPM_P2
2021/01/25 00:00:17;;;;;;;15.40;9.40;;;4.90;70.80;;;;;;4888950;28;92538;-75
2021/01/25 00:02:43;;;;;;;16.40;10.53;;;4.90;71.10;;;;;;4904891;28;93905;-75
2021/01/25 00:05:11;;;;;;;18.07;11.33;;;4.90;71.00;;;;;;4903583;28;94448;-75
2021/01/25 00:07:37;;;;;;;42.87;27.03;;;4.90;71.10;;;;;;4888292;28;92240;-75
2021/01/25 00:10:04;;;;;;;43.17;29.63;;;4.90;71.30;;;;;;4903821;28;92146;-75
2021/01/25 00:12:31;;;;;;;22.93;15.93;;;4.90;71.60;;;;;;4904736;28;95971;-75
2021/01/25 00:14:57;;;;;;;19.77;9.83;;;4.90;71.50;;;;;;4906685;28;92907;-76
2021/01/25 00:17:22;;;;;;;15.00;9.43;;;4.90;71.40;;;;;;4909354;28;92770;-76
2021/01/25 00:19:49;;;;;;;12.80;8.00;;;4.90;71.70;;;;;;4909524;28;91263;-76
2021/01/25 00:22:15;;;;;;;14.83;7.50;;;4.90;71.90;;;;;;4888030;28;97291;-75
2021/01/25 00:24:41;;;;;;;14.20;8.60;;;4.90;71.80;;;;;;4904537;28;95954;-75
2021/01/25 00:27:06;;;;;;;13.10;7.90;;;4.90;71.90;;;;;;4921315;28;92941;-75
2021/01/25 00:29:33;;;;;;;13.47;7.17;;;4.90;72.00;;;;;;4904776;28;92321;-75
2021/01/25 00:31:59;;;;;;;14.03;8.07;;;4.90;72.00;;;;;;4904533;28;93025;-75
2021/01/25 00:34:25;;;;;;;14.13;7.63;;;4.90;72.30;;;;;;4921916;28;93814;-75
2021/01/25 00:36:51;;;;;;;15.67;8.60;;;4.90;72.30;;;;;;4922936;28;92009;-75
2021/01/25 00:39:17;;;;;;;14.37;9.07;;;4.90;72.50;;;;;;4904115;28;92363;-75
2021/01/25 00:41:43;;;;;;;13.43;8.43;;;4.80;73.00;;;;;;4904383;28;97185;-75
2021/01/25 00:44:09;;;;;;;12.23;7.73;;;4.80;73.10;;;;;;4922177;28;93417;-75
2021/01/25 00:46:35;;;;;;;13.90;8.20;;;4.80;73.50;;;;;;4888506;28;92551;-75
2021/01/25 00:49:02;;;;;;;12.07;7.50;;;4.70;73.90;;;;;;4888460;28;92530;-75
2021/01/25 00:51:27;;;;;;;13.97;7.93;;;4.70;74.10;;;;;;4921308;28;95017;-75
2021/01/25 00:53:54;;;;;;;13.67;7.90;;;4.60;74.50;;;;;;4904333;28;96930;-75
2021/01/25 00:56:20;;;;;;;13.70;8.47;;;4.60;74.80;;;;;;4887621;28;91997;-75
2021/01/25 00:58:46;;;;;;;13.83;8.30;;;4.50;75.20;;;;;;4888258;28;92309;-75
2021/01/25 01:01:12;;;;;;;13.40;8.40;;;4.40;75.60;;;;;;4887254;28;96222;-75
2021/01/25 01:03:39;;;;;;;14.87;8.00;;;4.40;76.10;;;;;;4904387;28;93041;-76
2021/01/25 01:06:05;;;;;;;14.03;8.37;;;4.30;77.30;;;;;;4921233;28;92014;-75
2021/01/25 01:08:31;;;;;;;11.77;7.47;;;4.40;76.90;;;;;;4888691;28;91393;-75
2021/01/25 01:10:57;;;;;;;14.13;7.70;;;4.40;77.00;;;;;;4921391;28;92783;-75
2021/01/25 01:13:23;;;;;;;12.43;7.60;;;4.40;77.30;;;;;;4887226;28;96302;-75
2021/01/25 01:15:49;;;;;;;14.03;8.10;;;4.40;77.30;;;;;;4904235;28;92774;-75
2021/01/25 01:18:15;;;;;;;11.43;7.37;;;4.50;77.60;;;;;;4904006;28;92077;-75
2021/01/25 01:20:41;;;;;;;14.40;8.53;;;4.50;77.50;;;;;;4887694;28;96183;-75
2021/01/25 01:23:07;;;;;;;13.97;8.60;;;4.60;77.40;;;;;;4887298;28;96252;-75
2021/01/25 01:25:33;;;;;;;10.77;7.63;;;4.60;77.40;;;;;;4888221;28;92010;-76
2021/01/25 01:27:59;;;;;;;11.90;8.07;;;4.70;77.10;;;;;;4921492;28;92047;-75
2021/01/25 01:30:25;;;;;;;11.03;7.67;;;4.60;77.30;;;;;;4920309;28;93251;-75
2021/01/25 01:32:52;;;;;;;12.83;8.40;;;4.60;77.40;;;;;;4904420;28;93219;-75
2021/01/25 01:35:18;;;;;;;11.90;8.20;;;4.70;77.70;;;;;;4903135;28;92270;-75
2021/01/25 01:37:44;;;;;;;13.53;8.07;;;4.70;77.80;;;;;;4921504;28;92403;-75
2021/01/25 01:40:12;;;;;;;10.77;7.73;;;4.70;77.80;;;;;;4886451;28;97083;-75
2021/01/25 01:42:38;;;;;;;10.90;7.40;;;4.80;78.00;;;;;;4921133;28;93852;-75
2021/01/25 01:45:07;;;;;;;10.03;7.50;;;4.70;78.00;;;;;;4887969;28;92039;-75
2021/01/25 01:47:35;;;;;;;10.80;8.20;;;4.70;78.30;;;;;;4903019;28;92228;-76
2021/01/25 01:50:03;;;;;;;8.73;7.37;;;4.70;78.50;;;;;;4903601;28;93144;-75
2021/01/25 01:52:29;;;;;;;10.70;8.43;;;4.70;78.50;;;;;;4902763;28;93498;-75
2021/01/25 01:54:59;;;;;;;10.50;8.27;;;4.70;78.80;;;;;;4903622;28;91964;-75
2021/01/25 01:57:28;;;;;;;12.27;9.03;;;4.70;79.10;;;;;;4886554;28;91823;-75
2021/01/25 01:59:55;;;;;;;10.13;8.40;;;4.60;79.60;;;;;;4903449;28;92846;-75
2021/01/25 02:02:20;;;;;;;10.90;8.80;;;4.60;80.20;;;;;;4902957;28;92834;-74
2021/01/25 02:04:47;;;;;;;10.57;8.77;;;4.50;80.30;;;;;;4920785;28;92942;-75
2021/01/25 02:07:14;;;;;;;10.17;8.97;;;4.60;80.10;;;;;;4886621;28;92094;-75
2021/01/25 02:09:44;;;;;;;9.13;7.93;;;4.60;79.90;;;;;;4887126;28;96661;-75
2021/01/25 02:12:11;;;;;;;10.30;7.60;;;4.60;80.00;;;;;;4902680;28;92812;-75
2021/01/25 02:14:38;;;;;;;10.73;8.57;;;4.60;80.10;;;;;;4903584;28;92073;-75
2021/01/25 02:17:06;;;;;;;9.53;7.13;;;4.60;79.90;;;;;;4887485;28;92188;-75
2021/01/25 02:19:46;;;;;;;9.20;7.90;;;4.50;79.90;;;;;;4919205;28;93454;-75
2021/01/25 02:22:18;;;;;;;8.20;6.83;;;4.60;80.10;;;;;;4886499;28;96340;-75
2021/01/25 02:25:06;;;;;;;8.60;6.90;;;4.60;80.00;;;;;;4887537;28;92455;-75
2021/01/25 02:27:36;;;;;;;8.73;7.43;;;4.60;79.90;;;;;;4902387;28;92111;-75
2021/01/25 02:30:07;;;;;;;10.33;7.27;;;4.60;79.90;;;;;;4920024;28;94075;-75
2021/01/25 02:32:34;;;;;;;9.13;7.07;;;4.50;80.00;;;;;;4902667;28;94901;-75
2021/01/25 02:35:04;;;;;;;8.60;7.27;;;4.50;80.40;;;;;;4903653;28;92054;-75
2021/01/25 02:37:32;;;;;;;9.23;7.70;;;4.50;80.30;;;;;;4885930;28;92533;-74
2021/01/25 02:39:59;;;;;;;10.93;7.50;;;4.50;80.50;;;;;;4902930;28;93324;-75
2021/01/25 02:42:27;;;;;;;13.10;8.67;;;4.50;80.60;;;;;;4902519;28;93094;-75
2021/01/25 02:44:54;;;;;;;9.47;8.37;;;4.40;80.70;;;;;;4903819;28;91785;-75
2021/01/25 02:47:22;;;;;;;10.23;8.60;;;4.40;80.70;;;;;;4902918;28;91419;-75
2021/01/25 02:49:48;;;;;;;11.50;8.40;;;4.50;80.80;;;;;;4901250;28;92696;-75
2021/01/25 02:52:14;;;;;;;10.40;8.70;;;4.50;80.80;;;;;;4900063;28;92721;-75
2021/01/25 02:54:41;;;;;;;10.57;9.27;;;4.50;80.70;;;;;;4884481;28;93093;-75
2021/01/25 02:57:09;;;;;;;12.10;9.37;;;4.50;80.80;;;;;;4881297;28;92086;-75
2021/01/25 02:59:39;;;;;;;13.57;10.33;;;4.50;80.60;;;;;;4882688;28;95360;-75
2021/01/25 03:02:06;;;;;;;12.03;8.87;;;4.50;80.40;;;;;;4900199;28;92972;-75
2021/01/25 03:04:37;;;;;;;10.17;8.53;;;4.60;80.10;;;;;;4883804;28;92036;-75
2021/01/25 03:07:04;;;;;;;12.40;8.97;;;4.60;79.80;;;;;;4902689;28;92307;-75
2021/01/25 03:09:30;;;;;;;11.63;9.63;;;4.60;79.50;;;;;;4900427;28;96166;-75
2021/01/25 03:11:57;;;;;;;12.70;10.13;;;4.60;79.20;;;;;;4902498;28;94970;-76
2021/01/25 03:14:23;;;;;;;12.97;9.20;;;4.60;78.80;;;;;;4884329;28;92109;-75
2021/01/25 03:16:49;;;;;;;12.37;10.10;;;4.60;78.90;;;;;;4903112;28;92107;-75
2021/01/25 03:19:15;;;;;;;11.23;8.63;;;4.60;79.10;;;;;;4900349;28;93676;-75
2021/01/25 03:21:52;;;;;;;10.63;9.03;;;4.50;78.80;;;;;;4902597;28;94301;-75
2021/01/25 03:24:19;;;;;;;10.53;8.00;;;4.60;78.80;;;;;;4902247;28;91835;-76
2021/01/25 03:26:45;;;;;;;13.37;9.50;;;4.60;78.50;;;;;;4901128;28;93238;-75
2021/01/25 03:29:11;;;;;;;10.93;8.83;;;4.60;78.30;;;;;;4918425;28;92790;-75
2021/01/25 03:31:38;;;;;;;11.50;8.60;;;4.60;78.30;;;;;;4900543;28;96882;-75
2021/01/25 03:34:06;;;;;;;10.97;8.03;;;4.70;78.20;;;;;;4901762;28;92065;-75
2021/01/25 03:36:31;;;;;;;9.93;7.87;;;4.60;78.10;;;;;;4902341;28;91290;-75
2021/01/25 03:38:58;;;;;;;11.23;8.07;;;4.60;78.20;;;;;;4900453;28;96300;-75
2021/01/25 03:41:25;;;;;;;10.20;8.00;;;4.60;78.20;;;;;;4869210;28;96118;-75
2021/01/25 03:43:51;;;;;;;9.50;7.53;;;4.60;78.00;;;;;;4886048;28;92827;-75
2021/01/25 03:46:17;;;;;;;11.03;8.27;;;4.60;77.80;;;;;;4919519;28;92597;-75
2021/01/25 03:48:43;;;;;;;10.27;8.20;;;4.60;77.70;;;;;;4887928;28;96330;-75
2021/01/25 03:51:09;;;;;;;9.03;7.37;;;4.70;77.50;;;;;;4905318;28;94941;-78
2021/01/25 03:53:35;;;;;;;11.10;8.47;;;4.60;77.20;;;;;;4922552;28;91954;-77
2021/01/25 03:56:00;;;;;;;10.70;8.13;;;4.60;77.30;;;;;;4901938;28;92152;-75
2021/01/25 03:58:26;;;;;;;11.70;8.73;;;4.60;77.10;;;;;;4901134;28;93214;-75
2021/01/25 04:00:53;;;;;;;10.83;8.67;;;4.70;77.30;;;;;;4883721;28;96558;-75
2021/01/25 04:03:19;;;;;;;9.93;8.10;;;4.70;77.50;;;;;;4917337;28;92014;-76
2021/01/25 04:05:45;;;;;;;11.83;8.80;;;4.70;77.30;;;;;;4884459;28;92212;-75
2021/01/25 04:08:11;;;;;;;11.53;9.47;;;4.70;77.50;;;;;;4901545;28;93746;-75
2021/01/25 04:10:37;;;;;;;12.17;9.67;;;4.70;77.50;;;;;;4884041;28;98094;-75
2021/01/25 04:13:04;;;;;;;13.40;10.17;;;4.70;77.40;;;;;;4901310;28;92111;-75
2021/01/25 04:15:30;;;;;;;11.17;9.50;;;4.70;77.50;;;;;;4898695;28;92237;-75
2021/01/25 04:17:55;;;;;;;12.40;9.63;;;4.70;77.50;;;;;;4885210;28;96292;-75
2021/01/25 04:20:21;;;;;;;12.10;9.73;;;4.70;77.70;;;;;;4869579;28;96325;-75
2021/01/25 04:22:47;;;;;;;13.07;11.10;;;4.70;77.70;;;;;;4902716;28;91968;-75
2021/01/25 04:25:13;;;;;;;10.27;8.97;;;4.70;77.80;;;;;;4869755;28;91707;-75
2021/01/25 04:27:39;;;;;;;11.40;8.90;;;4.70;77.80;;;;;;4883867;28;96804;-75
2021/01/25 04:30:10;;;;;;;10.67;8.90;;;4.70;77.80;;;;;;4884654;28;96088;-75
2021/01/25 04:32:37;;;;;;;13.13;10.60;;;4.70;77.70;;;;;;4869108;28;93673;-75
2021/01/25 04:35:06;;;;;;;12.57;9.33;;;4.70;77.40;;;;;;4902609;28;92081;-75
2021/01/25 04:37:31;;;;;;;14.60;11.17;;;4.60;77.70;;;;;;4901188;28;93431;-75
2021/01/25 04:39:57;;;;;;;12.50;10.23;;;4.60;77.90;;;;;;4884758;28;95979;-75
2021/01/25 04:42:25;;;;;;;11.67;9.87;;;4.60;77.60;;;;;;4882562;28;94092;-75
2021/01/25 04:44:51;;;;;;;12.73;10.10;;;4.60;77.60;;;;;;4869150;28;92179;-75
2021/01/25 04:47:21;;;;;;;13.07;9.80;;;4.50;77.80;;;;;;4884452;28;97415;-75
2021/01/25 04:49:49;;;;;;;13.13;9.27;;;4.50;77.80;;;;;;4902798;28;92989;-75
2021/01/25 04:52:16;;;;;;;9.97;8.83;;;4.50;78.00;;;;;;4884515;28;92536;-75
2021/01/25 04:54:43;;;;;;;12.40;9.77;;;4.40;78.00;;;;;;4901129;28;93226;-75
2021/01/25 04:57:09;;;;;;;10.90;9.07;;;4.50;78.10;;;;;;4868922;28;97434;-75
2021/01/25 04:59:36;;;;;;;11.40;9.07;;;4.50;78.10;;;;;;4883715;28;93557;-75
2021/01/25 05:02:02;;;;;;;10.80;8.60;;;4.50;77.80;;;;;;4886022;28;91917;-75
2021/01/25 05:04:28;;;;;;;11.57;9.23;;;4.50;77.70;;;;;;4883077;28;92929;-75
2021/01/25 05:06:54;;;;;;;10.77;8.90;;;4.50;77.60;;;;;;4884812;28;96694;-75
2021/01/25 05:09:20;;;;;;;11.57;9.37;;;4.50;77.70;;;;;;4884471;28;92862;-75
2021/01/25 05:11:56;;;;;;;10.67;8.80;;;4.50;77.70;;;;;;4884813;28;92094;-75
2021/01/25 05:14:22;;;;;;;12.20;9.00;;;4.50;77.70;;;;;;4885478;28;91703;-75
2021/01/25 05:16:48;;;;;;;10.23;8.67;;;4.50;77.80;;;;;;4899422;28;93180;-75
2021/01/25 05:19:14;;;;;;;12.53;9.73;;;4.50;77.70;;;;;;4889191;28;96026;-75
2021/01/25 05:21:46;;;;;;;10.27;9.03;;;4.60;77.90;;;;;;4903156;28;93003;-75
2021/01/25 05:24:12;;;;;;;;;;;4.60;77.90;;;;;;4903358;28;92020;-75
2021/01/25 05:27:01;;;;;;;14.70;10.77;;;4.50;78.00;;;;;;4887382;28;96493;-75
2021/01/25 05:29:28;;;;;;;17.63;11.63;;;4.50;78.10;;;;;;4902726;28;92029;-75
2021/01/25 05:31:56;;;;;;;16.17;11.00;;;4.50;78.30;;;;;;4884672;28;92198;-75
2021/01/25 05:34:22;;;;;;;16.20;10.53;;;4.60;79.30;;;;;;4903120;28;92654;-75
2021/01/25 05:36:49;;;;;;;18.43;11.93;;;4.50;79.00;;;;;;4899734;28;93368;-75
2021/01/25 05:39:17;;;;;;;17.13;11.57;;;4.50;79.60;;;;;;4903552;28;92481;-75
2021/01/25 05:41:59;;;;;;;18.87;12.03;;;4.50;80.00;;;;;;4885115;28;92040;-75
2021/01/25 05:44:26;;;;;;;18.10;11.87;;;4.40;80.30;;;;;;4900358;28;92387;-75
2021/01/25 05:47:06;;;;;;;20.67;13.07;;;4.40;80.50;;;;;;4883839;28;93619;-76
2021/01/25 05:49:32;;;;;;;18.67;12.17;;;4.40;80.60;;;;;;4895295;28;97280;-75
2021/01/25 05:51:58;;;;;;;15.53;12.00;;;4.50;80.80;;;;;;4920586;28;91966;-75
2021/01/25 05:54:25;;;;;;;15.13;11.17;;;4.50;80.80;;;;;;4901829;28;92375;-75
2021/01/25 05:56:52;;;;;;;15.83;11.73;;;4.50;80.50;;;;;;4901687;28;96995;-75
2021/01/25 05:59:19;;;;;;;13.43;11.57;;;4.60;80.50;;;;;;4883456;28;95770;-75
2021/01/25 06:01:46;;;;;;;15.10;12.33;;;4.60;80.40;;;;;;4917315;28;92854;-75
2021/01/25 06:04:21;;;;;;;17.17;12.87;;;4.60;80.60;;;;;;4920925;28;91356;-75
2021/01/25 06:07:07;;;;;;;16.53;11.63;;;4.60;80.60;;;;;;4886175;28;96667;-75
2021/01/25 06:09:53;;;;;;;15.73;12.67;;;4.60;80.30;;;;;;4918585;28;93513;-75
2021/01/25 06:12:38;;;;;;;15.70;11.33;;;4.60;80.20;;;;;;4901207;28;92884;-75
2021/01/25 06:15:26;;;;;;;16.90;11.93;;;4.60;80.30;;;;;;4903208;28;92014;-75
2021/01/25 06:17:56;;;;;;;15.37;11.53;;;4.60;80.50;;;;;;4885032;28;97100;-76
2021/01/25 06:20:23;;;;;;;14.73;11.27;;;4.60;80.30;;;;;;4901280;28;94872;-75
2021/01/25 06:22:49;;;;;;;15.97;11.50;;;4.60;80.20;;;;;;4886138;28;92022;-75
2021/01/25 06:25:15;;;;;;;14.57;11.57;;;4.60;80.00;;;;;;4884027;28;92203;-76
2021/01/25 06:27:45;;;;;;;18.57;14.10;;;4.70;80.20;;;;;;4866963;28;95246;-75
2021/01/25 06:30:13;;;;;;;16.93;12.00;;;4.60;80.00;;;;;;4892145;28;96393;-76
2021/01/25 06:32:40;;;;;;;15.43;11.03;;;4.70;80.10;;;;;;4910883;28;93545;-75
2021/01/25 06:35:11;;;;;;;14.17;10.77;;;4.60;80.30;;;;;;4875380;28;92903;-75
2021/01/25 06:37:37;;;;;;;15.47;11.30;;;4.60;80.30;;;;;;4916026;28;93747;-75
2021/01/25 06:40:11;;;;;;;16.33;12.07;;;4.50;80.60;;;;;;4875396;28;97162;-75
2021/01/25 06:42:39;;;;;;;14.47;10.60;;;4.50;80.80;;;;;;4908103;28;92316;-75
2021/01/25 06:45:06;;;;;;;16.20;11.53;;;4.60;80.80;;;;;;4867306;28;92164;-75
2021/01/25 06:47:35;;;;;;;15.07;11.53;;;4.60;80.60;;;;;;4895792;28;96258;-74
2021/01/25 06:50:03;;;;;;;14.00;11.20;;;4.60;80.90;;;;;;4917054;28;92894;-75
2021/01/25 06:52:37;;;;;;;15.57;10.40;;;4.60;80.60;;;;;;4885859;28;92332;-75
2021/01/25 06:55:12;;;;;;;16.27;11.37;;;4.60;80.60;;;;;;4900558;28;91506;-75
2021/01/25 06:57:38;;;;;;;14.63;10.67;;;4.60;80.80;;;;;;4900011;28;96045;-75
2021/01/25 07:00:24;;;;;;;14.77;10.87;;;4.70;80.80;;;;;;4895333;28;96747;-75
2021/01/25 07:02:55;;;;;;;14.33;11.00;;;4.60;80.70;;;;;;4898809;28;93200;-75
2021/01/25 07:05:26;;;;;;;14.70;11.02;;;4.70;80.70;;;;;;4869253;28;92091;-75
2021/01/25 07:07:52;;;;;;;12.73;10.13;;;4.70;80.60;;;;;;4868898;28;96650;-75
2021/01/25 07:10:20;;;;;;;11.83;10.17;;;4.70;80.60;;;;;;4876923;28;96307;-75
2021/01/25 07:12:46;;;;;;;13.30;10.33;;;4.70;80.20;;;;;;4859655;28;92483;-75
2021/01/25 07:15:13;;;;;;;11.37;9.37;;;4.70;80.10;;;;;;4888283;28;92601;-76
2021/01/25 07:17:40;;;;;;;11.13;9.27;;;4.70;80.20;;;;;;4877063;28;95427;-75
2021/01/25 07:20:06;;;;;;;15.00;10.80;;;4.70;80.50;;;;;;4916227;28;92868;-75
2021/01/25 07:22:36;;;;;;;11.13;9.53;;;4.70;80.30;;;;;;4886566;28;93367;-75
2021/01/25 07:25:03;;;;;;;13.00;9.07;;;4.70;80.20;;;;;;4904272;28;92952;-76
2021/01/25 07:27:35;;;;;;;10.50;8.97;;;4.80;80.20;;;;;;4902419;28;94409;-75
2021/01/25 07:30:03;;;;;;;12.37;9.57;;;4.70;80.00;;;;;;4884708;28;97482;-76
2021/01/25 07:32:28;;;;;;;11.80;9.80;;;4.70;80.10;;;;;;4901475;28;92440;-75
2021/01/25 07:34:57;;;;;;;11.03;9.67;;;4.70;80.10;;;;;;4884657;28;93879;-75
2021/01/25 07:37:23;;;;;;;11.80;9.37;;;4.70;80.20;;;;;;4884981;28;96599;-75
2021/01/25 07:39:49;;;;;;;12.20;9.73;;;4.70;80.20;;;;;;4901508;28;92345;-75
2021/01/25 07:42:15;;;;;;;16.13;13.00;;;4.70;80.10;;;;;;4901025;28;92142;-75
2021/01/25 07:44:46;;;;;;;11.60;9.73;;;4.80;80.10;;;;;;4884897;28;91475;-75
2021/01/25 07:47:12;;;;;;;12.47;10.03;;;4.80;79.60;;;;;;4883133;28;96747;-76
2021/01/25 07:49:39;;;;;;;13.23;9.60;;;4.90;79.30;;;;;;4906900;28;93424;-75
2021/01/25 07:52:15;;;;;;;14.07;11.33;;;4.80;79.20;;;;;;4875569;28;93505;-75
2021/01/25 07:54:42;;;;;;;23.13;18.47;;;4.80;79.30;;;;;;4904561;28;92070;-75
2021/01/25 07:57:21;;;;;;;14.63;11.47;;;4.80;79.20;;;;;;4912469;28;93352;-75
2021/01/25 07:59:47;;;;;;;12.13;9.43;;;4.90;79.10;;;;;;4887486;28;92512;-79
2021/01/25 08:02:15;;;;;;;12.50;9.60;;;4.90;78.80;;;;;;4878370;28;92110;-76
2021/01/25 08:04:43;;;;;;;16.63;10.87;;;4.90;78.60;;;;;;4911371;28;92146;-76
2021/01/25 08:07:15;;;;;;;12.23;9.97;;;4.80;78.70;;;;;;4891664;28;96532;-76
2021/01/25 08:09:43;;;;;;;13.35;10.93;;;4.80;78.60;;;;;;4910113;28;93990;-76
2021/01/25 08:12:10;;;;;;;12.67;9.87;;;4.80;78.70;;;;;;4893113;28;92639;-76
2021/01/25 08:14:46;;;;;;;17.03;11.37;;;4.90;78.70;;;;;;4892235;28;92378;-74
2021/01/25 08:17:30;;;;;;;14.07;11.03;;;4.90;78.60;;;;;;4869058;28;97232;-76
2021/01/25 08:20:08;;;;;;;13.13;10.00;;;5.00;78.20;;;;;;4868481;28;97131;-76
2021/01/25 08:22:42;;;;;;;14.13;9.97;;;5.00;77.90;;;;;;4885777;28;92136;-76
2021/01/25 08:25:13;;;;;;;13.30;9.63;;;5.10;77.40;;;;;;4885241;28;92146;-75
2021/01/25 08:27:39;;;;;;;13.20;10.43;;;5.20;77.20;;;;;;4877437;28;95648;-75
2021/01/25 08:30:13;;;;;;;14.67;10.30;;;5.20;76.70;;;;;;4904890;28;92410;-75
2021/01/25 08:32:46;;;;;;;14.97;10.33;;;5.30;75.50;;;;;;4904689;28;92268;-75
2021/01/25 08:35:13;;;;;;;12.73;9.73;;;5.50;74.90;;;;;;4904748;28;91329;-75
2021/01/25 08:37:39;;;;;;;15.37;9.10;;;5.50;74.30;;;;;;4887980;28;96387;-75
2021/01/25 08:40:20;;;;;;;12.27;9.20;;;5.70;73.90;;;;;;4888847;28;96275;-75
2021/01/25 08:42:47;;;;;;;10.97;8.60;;;5.80;72.70;;;;;;4887949;28;93035;-75
2021/01/25 08:45:22;;;;;;;9.13;7.20;;;5.80;72.10;;;;;;4904830;28;92098;-76
2021/01/25 08:47:48;;;;;;;11.27;8.67;;;5.80;71.80;;;;;;4921245;28;93397;-75
2021/01/25 08:50:27;;;;;;;12.43;8.83;;;5.70;72.40;;;;;;4888648;28;94945;-75
2021/01/25 08:53:01;;;;;;;13.07;9.57;;;5.80;72.30;;;;;;4921554;28;92372;-75
2021/01/25 08:55:49;;;;;;;13.13;8.80;;;5.80;72.40;;;;;;4899949;28;92141;-74
2021/01/25 08:58:29;;;;;;;11.87;8.33;;;5.80;71.90;;;;;;4896309;28;97145;-75
2021/01/25 09:00:56;;;;;;;13.20;9.30;;;5.90;71.60;;;;;;4877860;28;95690;-75
2021/01/25 09:03:26;;;;;;;13.00;8.33;;;5.80;71.60;;;;;;4904972;28;92127;-75
2021/01/25 09:05:54;;;;;;;14.67;9.00;;;5.80;71.70;;;;;;4896558;28;92661;-75
2021/01/25 09:08:20;;;;;;;12.47;9.00;;;5.80;71.50;;;;;;4879539;28;97192;-76
2021/01/25 09:10:47;;;;;;;14.87;9.33;;;5.80;71.30;;;;;;4880289;28;96724;-75
2021/01/25 09:13:13;;;;;;;14.53;10.07;;;5.80;71.00;;;;;;4902362;28;94985;-75
2021/01/25 09:15:38;;;;;;;11.63;8.33;;;5.90;70.50;;;;;;4895988;28;92590;-75
2021/01/25 09:18:07;;;;;;;10.57;8.30;;;5.80;70.00;;;;;;4902942;28;94923;-75
2021/01/25 09:20:33;;;;;;;11.27;8.30;;;5.80;70.40;;;;;;4903121;28;92894;-76
2021/01/25 09:22:59;;;;;;;9.60;7.57;;;5.80;70.00;;;;;;4890053;28;92168;-75
2021/01/25 09:25:25;;;;;;;10.10;7.33;;;5.90;69.80;;;;;;4902312;28;91360;-75
2021/01/25 09:27:51;;;;;;;8.27;7.13;;;5.90;69.70;;;;;;4909187;28;93451;-75
2021/01/25 09:30:18;;;;;;;10.63;7.97;;;5.90;69.70;;;;;;4896415;28;95818;-75
2021/01/25 09:32:44;;;;;;;10.80;7.80;;;5.90;69.30;;;;;;4886393;28;93166;-75
2021/01/25 09:35:13;;;;;;;12.87;8.37;;;5.90;68.90;;;;;;4887663;28;92294;-75
2021/01/25 09:37:39;;;;;;;9.80;7.53;;;5.90;69.30;;;;;;4880634;28;96366;-75
2021/01/25 09:40:06;;;;;;;9.67;6.20;;;5.90;69.50;;;;;;4893807;28;92681;-76
2021/01/25 09:42:32;;;;;;;11.90;7.17;;;5.80;67.70;;;;;;4899328;28;92407;-75
2021/01/25 09:44:58;;;;;;;8.77;7.00;;;5.80;68.00;;;;;;4883668;28;92139;-75
2021/01/25 09:47:24;;;;;;;10.13;6.33;;;5.80;67.90;;;;;;4877498;28;96863;-75
2021/01/25 09:49:50;;;;;;;7.93;4.90;;;5.80;67.80;;;;;;4905355;28;93047;-76
2021/01/25 09:52:16;;;;;;;7.57;4.90;;;5.80;67.50;;;;;;4879862;28;92762;-76
2021/01/25 09:54:42;;;;;;;6.90;5.23;;;5.80;66.70;;;;;;4903176;28;92564;-75
2021/01/25 09:57:09;;;;;;;7.80;5.47;;;5.80;66.80;;;;;;4891317;28;94345;-75
2021/01/25 09:59:35;;;;;;;8.07;5.50;;;5.70;67.30;;;;;;4897182;28;96878;-75
2021/01/25 10:02:01;;;;;;;11.37;6.37;;;5.80;67.00;;;;;;4909393;28;92095;-74
2021/01/25 10:04:26;;;;;;;10.43;5.90;;;5.70;67.00;;;;;;4914281;28;92120;-73
2021/01/25 10:06:52;;;;;;;8.07;6.07;;;5.70;67.40;;;;;;4897965;28;96455;-74
2021/01/25 10:09:18;;;;;;;8.43;6.07;;;5.70;68.10;;;;;;4892425;28;92419;-75
2021/01/25 10:11:44;;;;;;;7.50;5.73;;;5.70;67.90;;;;;;4875851;28;92039;-74
2021/01/25 10:14:10;;;;;;;8.53;5.23;;;5.70;68.20;;;;;;4903103;28;91493;-73
2021/01/25 10:16:36;;;;;;;9.23;4.90;;;5.70;67.80;;;;;;4887901;28;96083;-74
2021/01/25 10:19:02;;;;;;;7.80;5.53;;;5.70;67.00;;;;;;4895339;28;95895;-74
2021/01/25 10:21:28;;;;;;;7.30;4.90;;;5.70;67.10;;;;;;4873576;28;92990;-75
2021/01/25 10:23:54;;;;;;;8.47;6.27;;;5.70;66.80;;;;;;4896605;28;92110;-75
2021/01/25 10:26:21;;;;;;;8.83;6.00;;;5.60;67.00;;;;;;4905965;28;93123;-74
2021/01/25 10:28:49;;;;;;;9.73;6.10;;;5.60;67.60;;;;;;4876175;28;96147;-73
2021/01/25 10:31:17;;;;;;;7.23;5.10;;;5.60;67.70;;;;;;4888495;28;91893;-74
2021/01/25 10:33:43;;;;;;;5.40;4.60;;;5.60;67.40;;;;;;4908745;28;92634;-74
2021/01/25 10:36:09;;;;;;;9.00;5.73;;;5.50;66.90;;;;;;4889915;28;96771;-75
2021/01/25 10:38:35;;;;;;;7.57;5.80;;;5.50;67.90;;;;;;4875715;28;96360;-75
2021/01/25 10:41:01;;;;;;;9.43;5.80;;;5.50;67.40;;;;;;4889149;28;92363;-75
2021/01/25 10:43:27;;;;;;;8.23;5.83;;;5.50;67.40;;;;;;4891741;28;92220;-74
2021/01/25 10:45:52;;;;;;;8.20;5.90;;;5.50;67.50;;;;;;4909208;28;93860;-74
2021/01/25 10:48:18;;;;;;;8.60;6.03;;;5.50;67.60;;;;;;4890899;28;97292;-74
2021/01/25 10:50:44;;;;;;;10.23;6.20;;;5.50;67.60;;;;;;4909460;28;92127;-74
2021/01/25 10:53:10;;;;;;;10.40;7.47;;;5.50;67.90;;;;;;4906528;28;92580;-74
2021/01/25 10:55:36;;;;;;;13.53;8.57;;;5.50;67.90;;;;;;4878010;28;96273;-75
2021/01/25 10:58:01;;;;;;;13.03;7.73;;;5.40;67.90;;;;;;4891743;28;94726;-74
2021/01/25 11:00:28;;;;;;;7.80;6.57;;;5.50;68.00;;;;;;4891289;28;92030;-75
2021/01/25 11:02:54;;;;;;;12.07;6.33;;;5.50;68.10;;;;;;4885656;28;91221;-77
2021/01/25 11:05:23;;;;;;;12.13;7.80;;;5.40;68.30;;;;;;4886244;28;96328;-77
2021/01/25 11:07:49;;;;;;;11.73;6.60;;;5.40;68.10;;;;;;4893471;28;95600;-75
2021/01/25 11:10:19;;;;;;;9.87;6.13;;;5.40;68.20;;;;;;4885909;28;93074;-75
2021/01/25 11:12:46;;;;;;;11.03;6.77;;;5.40;68.30;;;;;;4920263;28;92279;-75
2021/01/25 11:15:12;;;;;;;10.97;7.23;;;5.30;68.50;;;;;;4898643;28;96551;-75
2021/01/25 11:17:38;;;;;;;9.33;7.10;;;5.20;68.90;;;;;;4889845;28;95700;-74
2021/01/25 11:20:06;;;;;;;12.40;8.80;;;5.20;69.30;;;;;;4901569;28;93131;-75
2021/01/25 11:22:32;;;;;;;14.53;8.23;;;5.20;69.30;;;;;;4902388;28;92124;-75
2021/01/25 11:24:58;;;;;;;19.77;9.77;;;5.20;69.20;;;;;;4897941;28;96109;-75
2021/01/25 11:27:24;;;;;;;14.33;8.90;;;5.30;69.10;;;;;;4895041;28;92515;-75
2021/01/25 11:29:50;;;;;;;13.60;8.70;;;5.30;68.90;;;;;;4888152;28;92159;-74
2021/01/25 11:32:16;;;;;;;12.53;9.30;;;5.30;69.00;;;;;;4885720;28;92176;-75
2021/01/25 11:34:42;;;;;;;13.73;9.03;;;5.30;69.30;;;;;;4902550;28;96408;-75
2021/01/25 11:37:08;;;;;;;10.87;8.43;;;5.20;70.20;;;;;;4886328;28;93311;-75
2021/01/25 11:39:34;;;;;;;11.03;8.03;;;5.10;70.80;;;;;;4920791;28;92631;-75
2021/01/25 11:42:00;;;;;;;10.93;8.30;;;5.10;71.20;;;;;;4902062;28;92224;-75
2021/01/25 11:44:27;;;;;;;12.73;8.70;;;5.10;71.30;;;;;;4873740;28;96968;-75
2021/01/25 11:46:53;;;;;;;13.07;8.93;;;5.10;71.50;;;;;;4900466;28;93503;-73
2021/01/25 11:49:19;;;;;;;12.57;9.40;;;5.10;71.50;;;;;;4883351;28;92066;-73
2021/01/25 11:51:47;;;;;;;12.90;9.40;;;5.20;71.70;;;;;;4883164;28;91470;-74
2021/01/25 11:54:13;;;;;;;14.17;10.37;;;5.30;71.60;;;;;;4883138;28;95543;-73
2021/01/25 11:56:40;;;;;;;18.87;9.03;;;5.40;71.20;;;;;;4897034;28;95777;-73
2021/01/25 11:59:06;;;;;;;12.50;9.33;;;5.50;70.50;;;;;;4893872;28;93675;-74
2021/01/25 12:01:33;;;;;;;15.57;10.40;;;5.50;70.20;;;;;;4919782;28;92190;-74
2021/01/25 12:03:59;;;;;;;13.03;8.67;;;5.60;70.00;;;;;;4883675;28;96736;-74
2021/01/25 12:06:25;;;;;;;14.40;10.40;;;5.60;69.50;;;;;;4916295;28;93122;-74
2021/01/25 12:08:51;;;;;;;15.67;10.03;;;5.70;68.90;;;;;;4879850;28;92486;-73
2021/01/25 12:11:18;;;;;;;17.70;9.73;;;5.80;68.70;;;;;;4912859;28;92337;-74
2021/01/25 12:13:44;;;;;;;17.00;10.13;;;5.90;68.20;;;;;;4918276;28;93275;-74
2021/01/25 12:16:12;;;;;;;18.87;9.70;;;6.00;68.00;;;;;;4881321;28;94691;-74
2021/01/25 12:18:38;;;;;;;11.90;8.30;;;6.00;67.00;;;;;;4879758;28;92260;-74
2021/01/25 12:21:04;;;;;;;12.73;8.43;;;6.00;67.00;;;;;;4917223;28;92251;-73
2021/01/25 12:23:30;;;;;;;12.20;8.77;;;6.00;66.50;;;;;;4885819;28;97366;-74
2021/01/25 12:25:56;;;;;;;12.10;8.27;;;5.90;66.60;;;;;;4893232;28;97114;-73
2021/01/25 12:28:22;;;;;;;10.40;7.73;;;5.80;67.90;;;;;;4897369;28;92296;-73
2021/01/25 12:30:47;;;;;;;10.80;7.67;;;5.80;67.50;;;;;;4904162;28;92698;-74
2021/01/25 12:33:13;;;;;;;10.17;7.37;;;5.70;68.50;;;;;;4885670;28;96416;-74
2021/01/25 12:35:39;;;;;;;9.37;7.43;;;5.60;69.30;;;;;;4885046;28;94618;-74
2021/01/25 12:38:06;;;;;;;9.73;7.50;;;5.60;69.90;;;;;;4895579;28;92632;-76
2021/01/25 12:40:32;;;;;;;11.10;8.23;;;5.60;70.40;;;;;;4921609;28;92092;-76
2021/01/25 12:42:58;;;;;;;8.87;6.47;;;5.60;70.50;;;;;;4903390;28;93248;-75
2021/01/25 12:45:25;;;;;;;10.40;6.80;;;5.50;69.80;;;;;;4903693;28;96619;-75
2021/01/25 12:47:51;;;;;;;8.80;6.93;;;5.50;69.80;;;;;;4921349;28;92839;-75